Revere, North Dakota
Current Conditions -  °F | °C
As of 10:15 PM on Tuesday 27 Jan 2015 (Local Time) from KBAC Reporting Station
Moderate Fog Moderate Fog  
Wind Chill: 21°   Ceiling: 200
Heat Index: 32°   Visibility: 0.5mi
Dew Point: 32°   Wind: 16mph
Humidity: 100%   Direction: 160°SSE
Pressure: 29.85"   Gusts: 22mph
Location:  47.2843°N, 98.1073°W
Report Text: KBAC 280415Z AUTO 16014G19KT 1/2SM FZFG OVC002 00/00 A2985 RMK AO2
Loading
Personal Weather Stations






























Interactive Weather Map New forecast layout! Learn more

10-Day Weather Forecast

Advertisements
Track Severe Weather on mobile